createdAt,value
2023-02-05T10:44:07.153Z,271.00
2023-02-05T10:45:12.701Z,283.00
2023-02-05T10:46:18.204Z,265.00
2023-02-05T10:47:23.577Z,279.00
2023-02-05T10:48:28.969Z,265.00
2023-02-05T10:49:34.475Z,284.00
2023-02-05T10:50:40.016Z,260.00
2023-02-05T10:51:45.512Z,243.00
2023-02-05T10:52:51.053Z,279.00
2023-02-05T10:53:56.764Z,263.00
2023-02-05T10:55:02.222Z,273.00
2023-02-05T10:56:07.691Z,279.00
2023-02-05T10:57:13.106Z,283.00
2023-02-05T10:58:18.506Z,272.00
2023-02-05T10:59:23.898Z,249.00
2023-02-05T11:00:29.377Z,257.00
2023-02-05T11:01:34.778Z,261.00
2023-02-05T11:02:40.096Z,263.00
2023-02-05T11:03:45.418Z,220.00
2023-02-05T11:04:50.731Z,266.00
2023-02-05T11:05:56.060Z,268.00
2023-02-05T11:07:01.504Z,256.00
2023-02-05T11:08:06.898Z,275.00
2023-02-05T11:09:12.258Z,276.00
2023-02-05T11:10:17.613Z,284.00
2023-02-05T11:11:23.038Z,265.00
2023-02-05T11:12:28.346Z,285.00
2023-02-05T11:13:33.664Z,272.00
2023-02-05T11:14:38.969Z,290.00
2023-02-05T11:15:44.381Z,265.00
2023-02-05T11:16:49.690Z,285.00
2023-02-05T11:17:55.064Z,269.00
2023-02-05T11:19:00.399Z,287.00
2023-02-05T11:20:05.746Z,278.00
2023-02-05T11:21:11.091Z,292.00
2023-02-05T11:22:16.427Z,288.00
2023-02-05T11:23:21.755Z,269.00
2023-02-05T15:52:12.931Z,315.00
2023-02-05T15:53:18.361Z,308.00
2023-02-05T15:54:23.901Z,315.00
2023-02-05T15:55:29.417Z,315.00
2023-02-05T15:56:35.218Z,315.00
2023-02-05T15:57:40.641Z,250.00
2023-02-05T15:58:46.052Z,247.00
2023-02-05T15:59:51.424Z,247.00
2023-02-05T16:00:56.786Z,247.00
2023-02-05T16:02:02.130Z,247.00
2023-02-05T16:03:08.265Z,247.00
2023-02-05T16:04:13.732Z,247.00
2023-02-05T16:05:19.067Z,247.00
2023-02-05T16:06:24.341Z,247.00
2023-02-05T16:07:29.631Z,247.00
2023-02-05T16:08:34.920Z,247.00
2023-02-05T16:09:40.242Z,247.00
2023-02-05T16:10:45.578Z,225.00
2023-02-05T16:11:50.821Z,146.00
2023-02-05T16:12:56.089Z,157.00
2023-02-05T16:14:01.386Z,157.00
2023-02-05T16:15:06.588Z,203.00
2023-02-05T16:16:11.899Z,247.00
2023-02-05T16:17:17.132Z,247.00
2023-02-05T16:18:22.395Z,247.00
2023-02-05T16:19:27.676Z,247.00
2023-02-05T16:20:33.320Z,171.00
2023-02-05T16:21:38.737Z,68.00
2023-02-05T16:22:44.020Z,67.00
2023-02-05T16:23:49.287Z,67.00
2023-02-05T16:24:54.580Z,69.00
2023-02-05T16:25:59.893Z,73.00
2023-02-05T16:27:05.158Z,67.00
2023-02-05T16:28:10.411Z,67.00
2023-02-05T16:29:24.855Z,67.00
2023-02-05T16:30:26.842Z,216.00
2023-02-05T16:31:32.232Z,220.00
2023-02-05T16:32:37.500Z,172.00
2023-02-05T16:33:42.832Z,157.00
2023-02-05T16:34:48.184Z,156.00
2023-02-05T16:35:53.507Z,155.00
2023-02-05T16:36:58.849Z,155.00
2023-02-05T16:38:04.156Z,155.00
2023-02-05T16:39:09.473Z,156.00
2023-02-05T16:40:14.804Z,157.00
2023-02-05T16:41:20.104Z,156.00
2023-02-05T16:42:25.461Z,157.00
2023-02-05T16:43:30.760Z,224.00
2023-02-05T16:44:36.096Z,196.00
2023-02-05T16:45:41.428Z,22.00
2023-02-05T16:46:46.726Z,22.00
2023-02-05T16:47:52.052Z,22.00
2023-02-05T16:48:57.369Z,22.00
2023-02-05T16:50:02.708Z,25.00
2023-02-05T16:51:08.039Z,22.00
2023-02-05T16:52:13.788Z,22.00
2023-02-05T16:53:19.123Z,27.00
2023-02-05T16:54:24.450Z,95.00
2023-02-05T16:55:29.771Z,109.00
2023-02-05T16:56:35.075Z,80.00
2023-02-05T16:57:40.406Z,67.00
2023-02-05T16:58:45.859Z,107.00
2023-02-05T16:59:51.177Z,58.00
2023-02-05T17:00:56.556Z,67.00
2023-02-05T17:02:01.929Z,275.00
2023-02-05T17:03:07.195Z,337.00
2023-02-05T17:04:12.528Z,337.00
2023-02-05T17:05:17.841Z,337.00
2023-02-05T17:06:23.163Z,337.00
2023-02-05T17:07:28.458Z,337.00
2023-02-05T17:08:33.781Z,337.00
2023-02-05T17:09:39.084Z,337.00
2023-02-05T17:10:44.437Z,337.00
2023-02-05T17:11:49.737Z,331.00
2023-02-05T17:12:55.002Z,292.00
2023-02-05T17:14:00.295Z,209.00
2023-02-05T17:15:05.741Z,315.00
2023-02-05T17:16:11.000Z,315.00
2023-02-05T17:17:16.266Z,287.00
2023-02-05T17:18:21.544Z,292.00
2023-02-05T17:19:26.840Z,247.00
2023-02-05T17:20:32.234Z,247.00
2023-02-05T17:21:37.530Z,302.00
2023-02-05T17:22:42.797Z,315.00
2023-02-05T17:23:48.076Z,268.00
2023-02-05T17:24:53.326Z,276.00
2023-02-05T17:25:58.593Z,302.00
2023-02-05T17:27:03.854Z,266.00
2023-02-05T17:28:09.159Z,252.00
2023-02-05T17:29:14.396Z,247.00
2023-02-05T17:30:19.696Z,281.00
2023-02-05T17:31:25.070Z,258.00
2023-02-05T17:32:30.303Z,313.00
2023-02-05T17:33:35.598Z,290.00
2023-02-05T17:34:40.852Z,282.00
2023-02-05T17:35:46.104Z,256.00
2023-02-05T17:36:51.341Z,285.00
2023-02-05T17:37:56.589Z,255.00
2023-02-05T17:39:01.861Z,252.00
2023-02-05T17:40:07.113Z,266.00
2023-02-05T17:41:12.389Z,288.00
2023-02-05T17:42:17.664Z,270.00
2023-02-05T17:43:22.976Z,309.00
2023-02-05T17:44:28.232Z,290.00
2023-02-05T17:45:33.533Z,290.00
2023-02-05T17:46:38.775Z,251.00
2023-02-05T17:47:44.067Z,284.00
2023-02-05T17:48:49.288Z,275.00
2023-02-05T17:49:54.550Z,250.00
2023-02-05T17:50:59.784Z,257.00
2023-02-05T17:52:05.028Z,247.00
2023-02-05T17:53:10.438Z,254.00
2023-02-05T17:54:15.814Z,247.00
2023-02-05T17:55:21.242Z,250.00
2023-02-05T17:56:26.702Z,260.00
2023-02-05T17:57:32.106Z,270.00
2023-02-05T17:58:37.550Z,231.00
2023-02-05T17:59:42.907Z,231.00
2023-02-05T18:00:48.378Z,217.00
2023-02-05T18:01:53.783Z,293.00
2023-02-05T18:02:59.150Z,247.00
2023-02-05T18:04:04.607Z,197.00
2023-02-05T18:05:10.027Z,267.00
2023-02-05T18:06:15.418Z,237.00
2023-02-05T18:07:20.820Z,67.00
2023-02-05T18:08:26.273Z,285.00
2023-02-05T18:09:31.639Z,252.00
2023-02-05T18:10:37.336Z,228.00
2023-02-05T18:11:42.982Z,278.00
2023-02-05T18:12:48.417Z,202.00
2023-02-05T18:13:53.849Z,172.00
2023-02-05T18:14:59.265Z,277.00
2023-02-05T18:16:04.732Z,247.00
2023-02-05T18:17:10.187Z,213.00
2023-02-05T18:18:15.660Z,156.00
2023-02-05T18:19:21.381Z,185.00
2023-02-05T18:20:26.895Z,243.00
2023-02-05T18:21:32.368Z,286.00
2023-02-05T18:22:37.833Z,268.00
2023-02-05T18:23:43.321Z,247.00
2023-02-05T18:24:48.804Z,223.00
2023-02-05T18:25:54.248Z,253.00
2023-02-05T18:26:59.731Z,250.00
2023-02-05T18:28:05.192Z,173.00
2023-02-05T18:29:10.656Z,293.00
2023-02-05T18:30:16.109Z,314.00
2023-02-05T18:31:21.584Z,295.00
2023-02-05T18:32:27.082Z,248.00
2023-02-05T18:33:32.537Z,271.00
2023-02-05T18:34:38.000Z,121.00
2023-02-05T18:35:43.509Z,62.00
2023-02-05T18:36:48.991Z,220.00
2023-02-05T18:37:54.414Z,202.00
2023-02-05T18:38:59.880Z,217.00
2023-02-05T18:40:05.278Z,207.00
2023-02-05T18:41:10.699Z,212.00
2023-02-05T18:42:16.129Z,245.00
2023-02-05T18:43:21.539Z,198.00
2023-02-05T18:44:27.539Z,215.00
2023-02-05T18:45:32.941Z,190.00
2023-02-05T18:46:38.386Z,174.00
2023-02-05T18:47:43.827Z,155.00
2023-02-05T18:48:49.270Z,167.00
2023-02-05T18:49:54.678Z,187.00
2023-02-05T18:51:00.137Z,160.00
2023-02-05T18:52:05.549Z,182.00
2023-02-05T18:53:11.029Z,181.00
2023-02-05T18:54:16.466Z,148.00
2023-02-05T18:55:21.897Z,121.00
2023-02-05T18:56:27.324Z,161.00
2023-02-05T18:57:32.760Z,134.00
2023-02-05T18:58:38.221Z,103.00
2023-02-05T18:59:43.666Z,144.00
2023-02-05T19:00:49.110Z,244.00
2023-02-05T19:01:54.547Z,170.00
2023-02-05T19:03:00.028Z,215.00
2023-02-05T19:04:05.435Z,168.00
2023-02-05T19:05:10.872Z,122.00
2023-02-05T19:06:16.424Z,146.00
2023-02-05T19:07:21.858Z,192.00
2023-02-05T19:08:27.271Z,159.00
2023-02-05T19:09:32.805Z,169.00
2023-02-05T19:10:38.245Z,155.00
2023-02-05T19:11:43.711Z,181.00
2023-02-05T19:12:49.151Z,151.00
2023-02-05T19:13:54.615Z,173.00
2023-02-05T19:15:00.059Z,176.00
2023-02-05T19:16:05.545Z,156.00
2023-02-05T19:17:10.989Z,108.00
2023-02-05T19:18:16.415Z,186.00
2023-02-05T19:19:22.514Z,118.00
2023-02-05T19:20:27.962Z,146.00
2023-02-05T19:21:33.413Z,208.00
2023-02-05T19:22:38.876Z,229.00
2023-02-05T19:23:44.358Z,221.00
2023-02-05T19:24:49.792Z,203.00
2023-02-05T19:25:55.300Z,210.00
2023-02-05T19:27:00.734Z,216.00
2023-02-05T19:28:06.211Z,191.00
2023-02-05T19:29:11.853Z,249.00
2023-02-05T19:30:17.297Z,229.00
2023-02-05T19:31:22.825Z,206.00
2023-02-05T19:32:28.234Z,168.00
2023-02-05T19:33:33.705Z,129.00
2023-02-05T19:34:39.182Z,248.00
2023-02-05T19:35:44.628Z,172.00
2023-02-05T19:36:50.059Z,148.00
2023-02-05T19:37:55.535Z,142.00
2023-02-05T19:39:01.019Z,202.00
2023-02-05T19:40:06.488Z,170.00
2023-02-05T19:41:11.945Z,160.00
2023-02-05T19:42:17.491Z,163.00
2023-02-05T19:43:22.954Z,132.00
2023-02-05T19:44:28.462Z,177.00
2023-02-05T19:45:33.932Z,216.00
2023-02-05T19:46:39.477Z,187.00
2023-02-05T19:47:44.942Z,197.00
2023-02-05T19:48:50.428Z,129.00
2023-02-05T19:49:55.900Z,99.00
2023-02-05T19:51:01.354Z,200.00
2023-02-05T19:52:07.034Z,162.00
2023-02-05T19:53:12.517Z,161.00
2023-02-05T19:54:20.550Z,164.00
2023-02-05T19:55:26.861Z,152.00
2023-02-05T19:56:32.340Z,170.00
2023-02-05T19:57:37.800Z,199.00
2023-02-05T19:58:43.337Z,190.00
2023-02-05T19:59:48.780Z,157.00
2023-02-05T20:00:54.251Z,202.00
2023-02-05T20:01:59.677Z,148.00
2023-02-05T20:03:05.103Z,198.00
2023-02-05T20:04:10.592Z,122.00
2023-02-05T20:05:16.074Z,67.00
2023-02-05T20:06:21.483Z,172.00
2023-02-05T20:07:26.939Z,130.00
2023-02-05T20:08:32.429Z,169.00
2023-02-05T20:09:37.902Z,209.00
2023-02-05T20:10:43.367Z,157.00
2023-02-05T20:11:48.833Z,112.00
2023-02-05T20:12:54.323Z,182.00
2023-02-05T20:13:59.783Z,167.00
2023-02-05T20:15:05.302Z,160.00
2023-02-05T20:16:10.826Z,108.00
2023-02-05T20:17:16.342Z,204.00
2023-02-05T20:18:21.807Z,197.00
2023-02-05T20:19:27.266Z,147.00
2023-02-05T20:20:33.952Z,163.00
2023-02-05T20:21:39.536Z,239.00
2023-02-05T20:22:44.963Z,153.00
2023-02-05T20:23:50.404Z,146.00
2023-02-05T20:24:55.795Z,157.00
2023-02-05T20:26:01.169Z,159.00
2023-02-05T20:27:06.570Z,179.00
2023-02-05T20:28:11.992Z,201.00
2023-02-05T20:29:17.356Z,203.00
2023-02-05T20:30:22.853Z,191.00
2023-02-05T20:31:28.337Z,106.00
2023-02-05T20:32:33.746Z,132.00
2023-02-05T20:33:39.157Z,129.00
2023-02-05T20:34:44.571Z,225.00
2023-02-05T20:35:49.959Z,218.00
2023-02-05T20:36:55.374Z,201.00
2023-02-05T20:38:00.731Z,242.00
2023-02-05T20:39:06.152Z,148.00
2023-02-05T20:40:11.578Z,200.00
2023-02-05T20:41:17.221Z,153.00
2023-02-05T20:42:22.583Z,104.00
2023-02-05T20:43:28.004Z,149.00
2023-02-05T20:44:33.425Z,196.00
2023-02-05T20:45:38.850Z,167.00
2023-02-05T20:46:44.338Z,173.00
2023-02-05T20:47:49.743Z,142.00
2023-02-05T20:48:55.130Z,132.00
2023-02-05T20:50:00.542Z,169.00
2023-02-05T20:51:05.944Z,164.00
2023-02-05T20:52:11.376Z,159.00
2023-02-05T20:53:16.806Z,127.00
2023-02-05T20:54:22.258Z,156.00
2023-02-05T20:55:27.661Z,153.00
2023-02-05T20:56:33.024Z,130.00
2023-02-05T20:57:38.423Z,151.00
2023-02-05T20:58:44.245Z,177.00
2023-02-05T20:59:49.654Z,153.00
2023-02-05T21:00:55.166Z,145.00
2023-02-05T21:02:00.680Z,140.00
2023-02-05T21:03:06.058Z,159.00
2023-02-05T21:04:11.440Z,150.00
2023-02-05T21:05:16.711Z,162.00
2023-02-05T21:06:22.028Z,147.00
2023-02-05T21:07:27.368Z,139.00
2023-02-05T21:08:32.761Z,107.00
2023-02-05T21:09:38.097Z,108.00
2023-02-05T21:10:43.365Z,127.00
2023-02-05T21:11:48.646Z,83.00
2023-02-05T21:12:54.007Z,131.00
2023-02-05T21:13:59.321Z,137.00
2023-02-05T21:15:04.603Z,151.00
2023-02-05T21:16:09.951Z,144.00
2023-02-05T21:17:15.186Z,141.00
2023-02-05T21:18:20.443Z,142.00
2023-02-05T21:19:25.694Z,143.00
2023-02-05T21:20:31.022Z,139.00
2023-02-05T21:21:36.253Z,116.00
2023-02-05T21:22:41.671Z,137.00
2023-02-05T21:23:46.946Z,146.00
2023-02-05T21:24:52.217Z,124.00
2023-02-05T21:25:57.470Z,112.00
2023-02-05T21:27:02.722Z,134.00
2023-02-05T21:28:08.028Z,116.00
2023-02-05T21:29:13.318Z,104.00
2023-02-05T21:30:18.600Z,150.00
2023-02-05T21:31:23.864Z,133.00
2023-02-05T21:32:29.106Z,135.00
2023-02-05T21:33:34.405Z,128.00
2023-02-05T21:34:39.679Z,78.00
2023-02-05T21:35:44.961Z,151.00
2023-02-05T21:36:50.267Z,106.00
2023-02-05T21:37:55.521Z,117.00
2023-02-05T21:39:00.815Z,132.00
2023-02-05T21:40:09.625Z,167.00
2023-02-05T21:41:15.144Z,167.00
2023-02-05T21:42:20.420Z,119.00
2023-02-05T21:43:25.709Z,161.00
2023-02-05T21:44:30.987Z,145.00
2023-02-05T21:45:37.084Z,150.00
2023-02-05T21:46:42.350Z,153.00
2023-02-05T21:47:47.613Z,164.00
2023-02-05T21:48:52.892Z,145.00
2023-02-05T21:49:58.170Z,182.00
2023-02-05T21:51:03.453Z,163.00
2023-02-05T21:52:08.718Z,132.00
2023-02-05T21:53:14.023Z,174.00
2023-02-05T21:54:19.317Z,166.00
2023-02-05T21:55:24.597Z,171.00
2023-02-05T21:56:29.866Z,83.00
2023-02-05T21:57:35.121Z,184.00
2023-02-05T21:58:40.386Z,82.00
2023-02-05T21:59:45.640Z,169.00
2023-02-05T22:00:50.961Z,151.00
2023-02-05T22:01:56.270Z,217.00
2023-02-05T22:03:01.546Z,179.00
2023-02-05T22:04:06.768Z,189.00
2023-02-05T22:05:12.053Z,176.00
2023-02-05T22:06:17.331Z,176.00
2023-02-05T22:07:22.649Z,142.00
2023-02-05T22:08:27.909Z,30.00
2023-02-05T22:09:33.209Z,70.00
2023-02-05T22:10:38.485Z,178.00
2023-02-05T22:11:43.778Z,109.00
2023-02-05T22:12:49.094Z,214.00
2023-02-05T22:13:55.319Z,173.00
2023-02-05T22:15:00.582Z,138.00
2023-02-05T22:16:05.866Z,116.00
2023-02-05T22:17:11.186Z,143.00
2023-02-05T22:18:16.478Z,174.00
2023-02-05T22:19:21.779Z,136.00
2023-02-05T22:20:27.016Z,179.00
2023-02-05T22:21:32.256Z,150.00
2023-02-05T22:22:37.522Z,178.00
2023-02-05T22:23:42.819Z,236.00
2023-02-05T22:24:48.220Z,111.00
2023-02-05T22:25:53.521Z,121.00
2023-02-05T22:26:58.928Z,186.00
2023-02-05T22:28:04.333Z,227.00
2023-02-05T22:29:09.559Z,226.00
2023-02-05T22:30:14.884Z,231.00
2023-02-05T22:31:20.165Z,166.00
2023-02-05T22:32:25.416Z,153.00
2023-02-05T22:33:30.697Z,165.00
2023-02-05T22:34:36.054Z,183.00
2023-02-05T22:35:41.351Z,185.00
2023-02-05T22:36:46.667Z,138.00
2023-02-05T22:37:51.956Z,170.00
2023-02-05T22:38:57.221Z,251.00
2023-02-05T22:40:02.569Z,130.00
2023-02-05T22:41:07.827Z,162.00
2023-02-05T22:42:13.123Z,122.00
2023-02-05T22:43:18.355Z,227.00
2023-02-05T22:44:23.634Z,152.00
2023-02-05T22:45:28.935Z,196.00
2023-02-05T22:46:34.256Z,197.00
2023-02-05T22:47:39.618Z,126.00
2023-02-05T22:48:44.915Z,127.00
2023-02-05T22:49:50.163Z,174.00
2023-02-05T22:50:55.407Z,170.00
2023-02-05T22:52:00.708Z,205.00
2023-02-05T22:53:05.970Z,175.00
2023-02-05T22:54:11.219Z,99.00
2023-02-05T22:55:16.492Z,144.00
2023-02-05T22:56:21.771Z,253.00
2023-02-05T22:57:27.013Z,170.00
2023-02-05T22:58:32.351Z,169.00
2023-02-05T22:59:37.609Z,145.00
2023-02-05T23:00:42.882Z,257.00
2023-02-05T23:01:48.148Z,177.00
2023-02-05T23:02:53.440Z,204.00
2023-02-05T23:03:59.730Z,140.00
